createdAt,value
2022-10-01T00:00:27.609Z,15.15
2022-10-01T00:01:24.624Z,15.15
2022-10-01T00:02:21.341Z,14.83
2022-10-01T00:03:20.236Z,14.95
2022-10-01T00:04:16.958Z,14.86
2022-10-01T00:05:13.764Z,14.89
2022-10-01T00:06:17.759Z,14.69
2022-10-01T00:07:15.255Z,14.55
2022-10-01T00:08:15.441Z,14.47
2022-10-01T00:09:12.124Z,14.73
2022-10-01T00:10:11.009Z,14.10
2022-10-01T00:11:12.443Z,14.88
2022-10-01T00:12:09.124Z,14.63
2022-10-01T00:13:06.648Z,14.72
2022-10-01T00:14:03.378Z,13.61
2022-10-01T00:15:04.243Z,14.54
2022-10-01T00:16:07.731Z,14.16
2022-10-01T00:17:04.486Z,14.97
2022-10-01T00:18:02.117Z,14.53
2022-10-01T00:19:00.368Z,14.36
2022-10-01T00:19:57.047Z,14.52
2022-10-01T00:20:53.715Z,13.72
2022-10-01T00:21:50.467Z,14.44
2022-10-01T00:22:47.422Z,14.68
2022-10-01T00:23:44.467Z,14.79
2022-10-01T00:24:41.146Z,14.87
2022-10-01T00:25:38.313Z,14.35
2022-10-01T00:26:37.663Z,14.43
2022-10-01T00:27:35.875Z,14.85
2022-10-01T00:28:32.576Z,14.79
2022-10-01T00:29:31.820Z,14.71
2022-10-01T00:30:28.630Z,14.94
2022-10-01T00:31:26.606Z,14.63
2022-10-01T00:32:24.043Z,14.65
2022-10-01T00:33:20.711Z,14.63
2022-10-01T00:34:17.430Z,14.83
2022-10-01T00:35:14.540Z,13.83
2022-10-01T00:36:12.059Z,14.79
2022-10-01T00:37:10.391Z,14.60
2022-10-01T00:38:07.070Z,14.88
2022-10-01T00:39:03.921Z,14.85
2022-10-01T00:40:00.724Z,14.32
2022-10-01T00:40:58.586Z,13.86
2022-10-01T00:41:55.299Z,14.75
2022-10-01T00:42:51.964Z,14.87
2022-10-01T00:43:57.159Z,14.94
2022-10-01T00:44:54.126Z,14.56
2022-10-01T00:45:56.122Z,14.77
2022-10-01T00:46:57.118Z,14.66
2022-10-01T00:47:59.410Z,14.48
2022-10-01T00:49:20.550Z,14.67
2022-10-01T00:50:33.135Z,14.79
2022-10-01T00:51:35.184Z,14.84
2022-10-01T00:52:36.982Z,14.23
2022-10-01T00:53:34.450Z,14.73
2022-10-01T00:54:40.482Z,14.56
2022-10-01T00:55:46.855Z,14.36
2022-10-01T00:56:46.357Z,14.63
2022-10-01T00:57:45.485Z,14.60
2022-10-01T00:58:43.897Z,14.77
2022-10-01T00:59:41.123Z,14.18
2022-10-01T01:00:39.297Z,14.87
2022-10-01T01:01:37.978Z,14.29
2022-10-01T01:02:34.827Z,14.71
2022-10-01T01:03:31.675Z,14.59
2022-10-01T01:04:28.569Z,14.28
2022-10-01T01:05:25.293Z,14.59
2022-10-01T01:06:22.089Z,14.72
2022-10-01T01:07:19.818Z,14.75
2022-10-01T01:08:18.207Z,14.69
2022-10-01T01:09:15.108Z,14.65
2022-10-01T01:10:16.212Z,14.62
2022-10-01T01:11:38.806Z,14.81
2022-10-01T01:12:57.557Z,14.98
2022-10-01T01:14:12.092Z,14.90
2022-10-01T01:15:19.014Z,14.93
2022-10-01T01:16:21.778Z,14.91
2022-10-01T01:17:44.358Z,14.92
2022-10-01T01:18:47.911Z,14.93
2022-10-01T01:20:09.101Z,14.28
2022-10-01T01:21:29.104Z,14.64
2022-10-01T01:22:32.660Z,14.54
2022-10-01T01:23:53.734Z,14.80
2022-10-01T01:25:03.478Z,14.90
2022-10-01T01:26:16.990Z,14.87
2022-10-01T01:27:26.165Z,14.80
2022-10-01T01:28:41.465Z,14.83
2022-10-01T01:29:50.464Z,14.82
2022-10-01T01:30:51.801Z,14.83
2022-10-01T01:31:49.666Z,14.85
2022-10-01T01:33:03.177Z,14.77
2022-10-01T01:34:03.443Z,14.67
2022-10-01T01:35:04.181Z,14.81
2022-10-01T01:36:17.172Z,14.85
2022-10-01T01:37:19.368Z,14.85
2022-10-01T01:38:28.014Z,14.06
2022-10-01T01:39:31.918Z,14.71
2022-10-01T01:40:36.123Z,14.52
2022-10-01T01:41:39.891Z,14.58
2022-10-01T01:42:41.136Z,14.56
2022-10-01T01:43:44.225Z,14.00
2022-10-01T01:44:46.585Z,13.85
2022-10-01T01:45:44.924Z,14.46
2022-10-01T01:46:49.402Z,14.92
2022-10-01T01:47:47.364Z,14.13
2022-10-01T01:48:49.479Z,14.32
2022-10-01T01:49:46.559Z,14.70
2022-10-01T01:51:16.905Z,14.70
2022-10-01T01:52:16.060Z,14.83
2022-10-01T01:53:13.709Z,14.76
2022-10-01T01:54:10.440Z,14.60
2022-10-01T01:55:09.071Z,14.75
2022-10-01T01:56:07.888Z,14.70
2022-10-01T01:57:06.651Z,14.72
2022-10-01T01:58:03.657Z,14.41
2022-10-01T01:59:01.296Z,14.56
2022-10-01T01:59:57.972Z,14.55
2022-10-01T02:00:55.013Z,14.30
2022-10-01T02:01:51.878Z,14.74
2022-10-01T02:02:55.186Z,14.68
2022-10-01T02:03:51.936Z,14.45
2022-10-01T02:05:03.944Z,13.71
2022-10-01T02:06:19.039Z,14.06
2022-10-01T02:07:36.879Z,14.48
2022-10-01T02:08:49.737Z,14.35
2022-10-01T02:09:52.085Z,14.35
2022-10-01T02:11:00.858Z,14.40
2022-10-01T02:12:07.574Z,14.67
2022-10-01T02:13:26.166Z,14.71
2022-10-01T02:15:03.307Z,14.74
2022-10-01T02:16:15.119Z,14.24
2022-10-01T02:17:39.322Z,14.38
2022-10-01T02:18:57.142Z,14.31
2022-10-01T02:20:06.579Z,14.33
2022-10-01T02:21:03.214Z,14.54
2022-10-01T02:22:23.476Z,14.48
2022-10-01T02:23:28.859Z,13.80
2022-10-01T02:24:43.366Z,13.47
2022-10-01T02:25:53.970Z,14.20
2022-10-01T02:26:55.321Z,14.14
2022-10-01T02:28:00.977Z,14.11
2022-10-01T02:29:05.729Z,13.86
2022-10-01T02:30:07.887Z,13.93
2022-10-01T02:31:04.871Z,13.96
2022-10-01T02:32:02.472Z,13.58
2022-10-01T02:33:02.126Z,14.00
2022-10-01T02:34:02.623Z,14.12
2022-10-01T02:35:03.086Z,14.12
2022-10-01T02:36:04.354Z,13.75
2022-10-01T02:37:06.563Z,13.17
2022-10-01T02:38:06.785Z,13.73
2022-10-01T02:39:07.992Z,14.58
2022-10-01T02:40:11.232Z,14.51
2022-10-01T02:41:12.538Z,14.47
2022-10-01T02:42:15.796Z,14.82
2022-10-01T02:43:31.390Z,14.50
2022-10-01T02:44:38.160Z,15.03
2022-10-01T02:45:40.339Z,14.86
2022-10-01T02:46:52.947Z,15.03
2022-10-01T02:47:57.803Z,14.31
2022-10-01T02:48:55.711Z,14.97
2022-10-01T02:49:54.350Z,14.32
2022-10-01T02:50:59.088Z,14.97
2022-10-01T02:52:07.992Z,14.91
2022-10-01T02:53:37.627Z,14.34
2022-10-01T02:54:53.535Z,14.98
2022-10-01T02:55:52.699Z,15.08
2022-10-01T02:57:09.814Z,15.21
2022-10-01T02:58:16.724Z,15.20
2022-10-01T02:59:29.600Z,15.35
2022-10-01T03:00:27.089Z,15.31
2022-10-01T03:01:23.779Z,15.31
2022-10-01T03:02:22.608Z,14.82
2022-10-01T03:03:19.352Z,13.57
2022-10-01T03:04:16.021Z,15.36
2022-10-01T03:05:12.897Z,15.15
2022-10-01T03:06:09.551Z,15.28
2022-10-01T03:07:06.422Z,15.15
2022-10-01T03:08:03.229Z,15.33
2022-10-01T03:09:00.398Z,15.20
2022-10-01T03:09:57.192Z,15.32
2022-10-01T03:10:53.883Z,15.22
2022-10-01T03:11:51.281Z,15.18
2022-10-01T03:12:47.987Z,15.49
2022-10-01T03:13:44.646Z,15.25
2022-10-01T03:14:41.533Z,15.52
2022-10-01T03:15:38.233Z,15.58
2022-10-01T03:16:35.069Z,15.19
2022-10-01T03:17:31.774Z,15.18
2022-10-01T03:18:28.423Z,14.86
2022-10-01T03:19:25.501Z,15.36
2022-10-01T03:20:22.566Z,15.07
2022-10-01T03:21:19.403Z,15.59
2022-10-01T03:22:20.793Z,15.27
2022-10-01T03:23:17.685Z,15.55
2022-10-01T03:24:14.339Z,15.28
2022-10-01T03:25:11.055Z,15.50
2022-10-01T03:26:07.829Z,15.46
2022-10-01T03:27:04.685Z,15.48
2022-10-01T03:28:01.612Z,15.39
2022-10-01T03:28:58.386Z,15.08
2022-10-01T03:29:55.071Z,15.31
2022-10-01T03:30:51.823Z,15.37
2022-10-01T03:31:48.679Z,14.97
2022-10-01T03:32:45.377Z,14.99
2022-10-01T03:33:42.106Z,15.49
2022-10-01T03:34:39.129Z,14.97
2022-10-01T03:35:35.806Z,15.54
2022-10-01T03:36:32.561Z,15.50
2022-10-01T03:37:29.234Z,15.45
2022-10-01T03:38:25.906Z,15.42
2022-10-01T03:39:22.590Z,14.66
2022-10-01T03:40:19.397Z,15.38
2022-10-01T03:41:16.073Z,14.92
2022-10-01T03:42:12.808Z,15.01
2022-10-01T03:43:09.474Z,15.35
2022-10-01T03:44:06.353Z,15.14
2022-10-01T03:45:03.125Z,14.79
2022-10-01T03:45:59.857Z,14.97
2022-10-01T03:46:56.623Z,14.98
2022-10-01T03:47:53.638Z,15.07
2022-10-01T03:48:50.654Z,15.14
2022-10-01T03:49:47.340Z,14.86
2022-10-01T03:50:53.320Z,15.06
2022-10-01T03:51:50.379Z,15.01
2022-10-01T03:52:47.039Z,15.01
2022-10-01T03:53:43.696Z,14.96
2022-10-01T03:54:40.439Z,15.00
2022-10-01T03:55:37.158Z,14.24
2022-10-01T03:56:35.423Z,15.25
2022-10-01T03:57:32.110Z,14.56
2022-10-01T03:58:28.800Z,15.15
2022-10-01T03:59:27.246Z,14.97
2022-10-01T04:00:24.554Z,14.94
2022-10-01T04:01:22.264Z,14.84
2022-10-01T04:02:19.952Z,14.92
2022-10-01T04:03:17.721Z,14.93
2022-10-01T04:04:15.031Z,14.53
2022-10-01T04:05:12.357Z,14.96
2022-10-01T04:06:09.362Z,14.98
2022-10-01T04:07:06.030Z,15.03
2022-10-01T04:08:02.862Z,15.11
2022-10-01T04:08:59.762Z,15.06
2022-10-01T04:09:56.435Z,15.00
2022-10-01T04:10:53.129Z,14.99
2022-10-01T04:11:49.838Z,15.08
2022-10-01T04:12:46.513Z,14.68
2022-10-01T04:13:43.222Z,14.91
2022-10-01T04:14:39.901Z,14.58
2022-10-01T04:15:36.798Z,14.65
2022-10-01T04:16:36.228Z,14.58
2022-10-01T04:17:33.236Z,14.76
2022-10-01T04:18:30.931Z,14.49
2022-10-01T04:19:27.592Z,14.06
2022-10-01T04:20:24.958Z,14.33
2022-10-01T04:21:21.854Z,14.55
2022-10-01T04:22:18.533Z,14.47
2022-10-01T04:23:15.647Z,14.33
2022-10-01T04:24:12.390Z,14.28
2022-10-01T04:25:10.878Z,14.44
2022-10-01T04:26:08.224Z,14.59
2022-10-01T04:27:04.923Z,14.46
2022-10-01T04:28:07.358Z,14.54
2022-10-01T04:29:04.182Z,14.50
2022-10-01T04:30:00.902Z,13.75
2022-10-01T04:31:16.807Z,14.80
2022-10-01T04:32:13.545Z,14.82
2022-10-01T04:33:16.359Z,14.86
2022-10-01T04:34:13.025Z,14.69
2022-10-01T04:35:11.218Z,14.78
2022-10-01T04:36:08.281Z,14.67
2022-10-01T04:37:04.963Z,14.53
2022-10-01T04:38:07.010Z,14.68
2022-10-01T04:39:03.811Z,14.61
2022-10-01T04:40:00.913Z,14.81
2022-10-01T04:40:57.627Z,14.88
2022-10-01T04:41:54.324Z,14.50
2022-10-01T04:42:51.516Z,14.54
2022-10-01T04:43:48.687Z,14.92
2022-10-01T04:44:45.350Z,14.60
2022-10-01T04:45:42.078Z,14.88
2022-10-01T04:46:38.808Z,14.88
2022-10-01T04:47:37.602Z,13.74
2022-10-01T04:48:34.534Z,14.53
2022-10-01T04:49:32.881Z,14.18
2022-10-01T04:50:29.556Z,14.67
2022-10-01T04:51:26.316Z,14.72
2022-10-01T04:52:23.197Z,14.75
2022-10-01T04:53:19.874Z,15.01
2022-10-01T04:54:16.541Z,15.16
2022-10-01T04:55:15.084Z,15.19
2022-10-01T04:56:11.777Z,15.12
2022-10-01T04:57:08.463Z,14.96
2022-10-01T04:58:05.154Z,14.76
2022-10-01T04:59:02.156Z,15.02
2022-10-01T04:59:58.842Z,15.29
2022-10-01T05:00:58.545Z,15.00
2022-10-01T05:01:58.475Z,15.07
2022-10-01T05:02:56.407Z,15.23
2022-10-01T05:03:53.087Z,15.20
2022-10-01T05:04:49.774Z,15.21
2022-10-01T05:05:46.506Z,15.13
2022-10-01T05:06:43.254Z,15.25
2022-10-01T05:07:40.594Z,15.37
2022-10-01T05:08:38.000Z,14.99
2022-10-01T05:09:35.082Z,15.26
2022-10-01T05:10:32.296Z,14.92
2022-10-01T05:11:29.216Z,15.35
2022-10-01T05:12:27.279Z,15.33
2022-10-01T05:13:27.704Z,15.45
2022-10-01T05:14:26.036Z,15.47
2022-10-01T05:15:22.793Z,15.51
2022-10-01T05:16:19.563Z,15.60
2022-10-01T05:17:17.288Z,15.71
2022-10-01T05:18:13.992Z,15.46
2022-10-01T05:19:10.746Z,15.49
2022-10-01T05:20:16.829Z,15.25
2022-10-01T05:21:15.582Z,15.67
2022-10-01T05:22:12.642Z,15.70
2022-10-01T05:23:09.398Z,15.98
2022-10-01T05:24:06.251Z,15.53
2022-10-01T05:25:03.054Z,16.23
2022-10-01T05:26:00.884Z,16.21
2022-10-01T05:26:58.557Z,16.30
2022-10-01T05:28:05.044Z,16.24
2022-10-01T05:29:01.881Z,16.19
2022-10-01T05:29:58.589Z,15.34
2022-10-01T05:30:56.471Z,16.04
2022-10-01T05:31:53.209Z,16.09
2022-10-01T05:33:02.238Z,16.44
2022-10-01T05:33:58.937Z,16.52
2022-10-01T05:34:55.606Z,16.01
2022-10-01T05:35:53.110Z,16.46
2022-10-01T05:36:49.746Z,16.43
2022-10-01T05:37:46.434Z,16.30
2022-10-01T05:38:43.129Z,16.42
2022-10-01T05:39:39.846Z,16.62
2022-10-01T05:40:36.844Z,16.55
2022-10-01T05:41:33.759Z,16.74
2022-10-01T05:42:30.649Z,16.85
2022-10-01T05:43:27.343Z,16.95
2022-10-01T05:44:25.221Z,17.03
2022-10-01T05:45:23.235Z,17.04
2022-10-01T05:46:20.070Z,16.92
2022-10-01T05:47:18.127Z,16.99
2022-10-01T05:48:14.914Z,16.97
2022-10-01T05:49:11.730Z,16.96
2022-10-01T05:50:09.193Z,16.83
2022-10-01T05:51:08.089Z,16.56
2022-10-01T05:52:05.267Z,16.75
2022-10-01T05:53:02.349Z,16.83
2022-10-01T05:53:59.520Z,16.43
2022-10-01T05:54:56.234Z,16.90
2022-10-01T05:55:53.575Z,16.92
2022-10-01T05:56:50.568Z,16.95
2022-10-01T05:57:58.684Z,17.06
2022-10-01T05:58:55.507Z,17.06
2022-10-01T05:59:52.188Z,16.94
2022-10-01T06:00:48.938Z,17.24
2022-10-01T06:01:46.568Z,17.17
2022-10-01T06:02:43.509Z,16.77
2022-10-01T06:03:40.243Z,17.08
2022-10-01T06:04:41.071Z,17.22
2022-10-01T06:05:38.527Z,16.92
2022-10-01T06:06:35.227Z,17.31
2022-10-01T06:07:32.220Z,17.12
2022-10-01T06:08:28.952Z,17.46
2022-10-01T06:09:25.896Z,17.24
2022-10-01T06:10:23.796Z,16.80
2022-10-01T06:11:24.265Z,17.40
2022-10-01T06:12:20.990Z,17.48
2022-10-01T06:13:17.900Z,17.30
2022-10-01T06:14:14.976Z,17.26
2022-10-01T06:15:12.937Z,16.86
2022-10-01T06:16:09.675Z,17.23
2022-10-01T06:17:06.494Z,17.40
2022-10-01T06:18:11.400Z,17.15
2022-10-01T06:19:08.322Z,17.13
2022-10-01T06:20:05.462Z,17.41
2022-10-01T06:21:02.167Z,17.35
2022-10-01T06:21:58.876Z,17.08
2022-10-01T06:22:57.662Z,17.20
2022-10-01T06:23:54.429Z,17.11
2022-10-01T06:24:54.848Z,17.12
2022-10-01T06:25:54.346Z,17.34
2022-10-01T06:26:51.218Z,16.96
2022-10-01T06:27:58.164Z,17.14
2022-10-01T06:28:54.990Z,16.68
2022-10-01T06:29:51.649Z,16.84
2022-10-01T06:30:49.762Z,16.87
2022-10-01T06:31:46.504Z,16.31
2022-10-01T06:32:43.228Z,17.38
2022-10-01T06:33:39.897Z,17.40
2022-10-01T06:34:36.636Z,17.29
2022-10-01T06:35:34.734Z,17.34
2022-10-01T06:36:31.784Z,17.48
2022-10-01T06:37:28.737Z,17.32
2022-10-01T06:38:26.346Z,16.16
2022-10-01T06:39:23.026Z,17.10
2022-10-01T06:40:20.033Z,17.46
2022-10-01T06:41:16.732Z,17.41
2022-10-01T06:42:13.586Z,17.58
2022-10-01T06:43:10.293Z,17.35
2022-10-01T06:44:06.955Z,17.37
2022-10-01T06:45:03.935Z,17.24
2022-10-01T06:46:05.306Z,16.91
2022-10-01T06:47:02.328Z,17.01
2022-10-01T06:48:03.818Z,17.13
2022-10-01T06:49:00.613Z,16.34
2022-10-01T06:49:59.405Z,17.16
2022-10-01T06:50:56.469Z,17.56
2022-10-01T06:52:12.042Z,17.48
2022-10-01T06:53:08.990Z,16.90
2022-10-01T06:54:05.685Z,17.52
2022-10-01T06:55:03.089Z,17.58
2022-10-01T06:56:05.768Z,17.36
2022-10-01T06:57:02.460Z,17.58
2022-10-01T06:58:04.874Z,17.70
2022-10-01T06:59:01.551Z,17.91
2022-10-01T06:59:58.435Z,18.10
2022-10-01T07:01:01.446Z,18.14
2022-10-01T07:01:58.362Z,18.27
2022-10-01T07:02:55.763Z,18.22
2022-10-01T07:03:54.167Z,18.31
2022-10-01T07:04:50.864Z,18.33
2022-10-01T07:05:49.223Z,18.31
2022-10-01T07:06:45.933Z,18.19
2022-10-01T07:07:43.462Z,18.15
2022-10-01T07:08:40.490Z,18.39
2022-10-01T07:09:37.286Z,18.04
2022-10-01T07:10:35.459Z,18.11
2022-10-01T07:11:32.379Z,18.54
2022-10-01T07:12:29.294Z,18.64
2022-10-01T07:13:25.966Z,18.48
2022-10-01T07:14:22.882Z,18.85
2022-10-01T07:15:25.702Z,19.00
2022-10-01T07:16:22.429Z,18.18
2022-10-01T07:17:19.267Z,18.50
2022-10-01T07:18:16.934Z,18.92
2022-10-01T07:19:13.783Z,18.85
2022-10-01T07:20:10.909Z,18.01
2022-10-01T07:21:07.667Z,19.30
2022-10-01T07:22:04.357Z,19.45
2022-10-01T07:23:01.533Z,19.44
2022-10-01T07:23:58.224Z,19.54
2022-10-01T07:24:54.998Z,19.39
2022-10-01T07:25:51.741Z,19.31
2022-10-01T07:26:51.019Z,18.93
2022-10-01T07:27:47.770Z,19.45
2022-10-01T07:28:45.031Z,19.71
2022-10-01T07:29:42.254Z,19.88
2022-10-01T07:30:40.433Z,19.94
2022-10-01T07:31:37.699Z,19.89
2022-10-01T07:32:35.391Z,19.84
2022-10-01T07:33:32.514Z,19.72
2022-10-01T07:34:32.716Z,19.77
2022-10-01T07:35:29.664Z,19.92
2022-10-01T07:36:26.539Z,19.99
2022-10-01T07:37:23.816Z,19.62
2022-10-01T07:38:20.495Z,19.74
2022-10-01T07:39:17.204Z,20.29
2022-10-01T07:40:16.343Z,19.92
2022-10-01T07:41:13.757Z,20.34
2022-10-01T07:42:10.602Z,20.36
2022-10-01T07:43:08.507Z,19.49
2022-10-01T07:44:05.211Z,20.29
2022-10-01T07:45:04.326Z,20.38
2022-10-01T07:46:03.493Z,20.23
2022-10-01T07:47:00.866Z,20.33
2022-10-01T07:48:00.717Z,20.44
2022-10-01T07:48:57.410Z,20.29
2022-10-01T07:50:12.597Z,20.70
2022-10-01T07:51:09.376Z,20.70
2022-10-01T07:52:10.915Z,20.65
2022-10-01T07:53:09.765Z,20.30
2022-10-01T07:54:06.562Z,19.82
2022-10-01T07:55:03.290Z,20.58
2022-10-01T07:56:03.374Z,20.65
2022-10-01T07:57:00.220Z,20.42
2022-10-01T07:58:01.497Z,20.06
2022-10-01T07:58:59.297Z,20.52
2022-10-01T07:59:56.270Z,20.55
2022-10-01T08:00:58.234Z,20.38
2022-10-01T08:01:55.401Z,20.81
2022-10-01T08:02:55.930Z,20.87
2022-10-01T08:03:53.267Z,20.78
2022-10-01T08:05:08.632Z,19.91
2022-10-01T08:06:09.521Z,20.74
2022-10-01T08:07:08.263Z,20.72
2022-10-01T08:08:08.629Z,20.91
2022-10-01T08:09:06.164Z,20.89
2022-10-01T08:10:04.719Z,19.97
2022-10-01T08:11:04.641Z,20.81
2022-10-01T08:12:02.353Z,20.48
2022-10-01T08:13:08.749Z,20.77
2022-10-01T08:14:05.860Z,20.41
2022-10-01T08:15:02.759Z,20.49
2022-10-01T08:16:01.958Z,20.58
2022-10-01T08:16:58.724Z,20.32
2022-10-01T08:17:55.482Z,20.47
2022-10-01T08:18:55.715Z,20.20
2022-10-01T08:19:52.403Z,20.42
2022-10-01T08:20:49.248Z,20.10
2022-10-01T08:21:45.915Z,19.67
2022-10-01T08:22:42.680Z,20.61
2022-10-01T08:23:39.426Z,20.05
2022-10-01T08:24:36.330Z,20.46
2022-10-01T08:25:33.481Z,20.12
2022-10-01T08:26:30.792Z,20.25
2022-10-01T08:27:28.865Z,20.69
2022-10-01T08:28:26.077Z,20.28
2022-10-01T08:29:22.971Z,20.43
2022-10-01T08:30:19.725Z,20.62
2022-10-01T08:31:16.498Z,20.66
2022-10-01T08:32:13.314Z,20.46
2022-10-01T08:33:12.030Z,20.76
2022-10-01T08:34:08.724Z,20.72
2022-10-01T08:35:05.898Z,19.83
2022-10-01T08:36:04.217Z,20.40
2022-10-01T08:37:00.994Z,20.44
2022-10-01T08:38:02.310Z,20.51
2022-10-01T08:38:58.984Z,20.60
2022-10-01T08:39:57.251Z,20.60
2022-10-01T08:40:54.128Z,20.71
2022-10-01T08:42:26.397Z,20.49
2022-10-01T08:43:33.782Z,20.10
2022-10-01T08:44:41.214Z,19.86
2022-10-01T08:45:49.237Z,20.49
2022-10-01T08:46:46.566Z,20.12
2022-10-01T08:47:53.410Z,20.43
2022-10-01T08:49:13.935Z,20.61
2022-10-01T08:50:41.886Z,20.16
2022-10-01T08:51:41.560Z,20.74
2022-10-01T08:52:51.112Z,20.97
2022-10-01T08:53:57.546Z,20.82
2022-10-01T08:55:05.576Z,20.57
2022-10-01T08:56:05.222Z,20.66
2022-10-01T08:57:04.917Z,20.72
2022-10-01T08:58:07.384Z,20.86
2022-10-01T08:59:19.122Z,20.58
2022-10-01T09:00:19.195Z,20.95
2022-10-01T09:01:16.013Z,20.97
2022-10-01T09:02:31.967Z,20.90
2022-10-01T09:03:32.462Z,20.81
2022-10-01T09:04:29.446Z,20.39
2022-10-01T09:05:31.976Z,20.79
2022-10-01T09:06:29.231Z,20.15
2022-10-01T09:07:44.284Z,20.59
2022-10-01T09:08:43.846Z,20.67
2022-10-01T09:10:05.008Z,20.38
2022-10-01T09:11:06.969Z,20.60
2022-10-01T09:12:27.580Z,20.05
2022-10-01T09:13:57.538Z,20.37
2022-10-01T09:15:18.577Z,20.85
2022-10-01T09:16:33.361Z,21.14
2022-10-01T09:18:03.090Z,21.13
2022-10-01T09:19:11.867Z,21.03
2022-10-01T09:20:20.561Z,21.13
2022-10-01T09:21:34.154Z,21.10
2022-10-01T09:22:47.887Z,21.08
2022-10-01T09:23:54.955Z,21.17
2022-10-01T09:25:11.148Z,21.00
2022-10-01T09:26:12.965Z,20.96
2022-10-01T09:27:18.815Z,20.92
2022-10-01T09:28:20.110Z,20.79
2022-10-01T09:29:39.482Z,20.33
2022-10-01T09:30:40.601Z,20.68
2022-10-01T09:31:45.291Z,20.58
2022-10-01T09:32:56.120Z,20.46
2022-10-01T09:34:10.946Z,20.36
2022-10-01T09:35:20.111Z,20.70
2022-10-01T09:36:22.618Z,20.64
2022-10-01T09:37:48.943Z,20.41
2022-10-01T09:39:16.924Z,20.40
2022-10-01T09:40:38.651Z,20.44
2022-10-01T09:41:35.551Z,20.48
2022-10-01T09:42:32.805Z,19.64
2022-10-01T09:43:32.985Z,20.58
2022-10-01T09:44:33.072Z,20.40
2022-10-01T09:45:29.939Z,20.15
2022-10-01T09:46:26.750Z,20.47
2022-10-01T09:47:28.173Z,20.52
2022-10-01T09:48:46.756Z,20.48
2022-10-01T09:49:46.811Z,20.58
2022-10-01T09:50:54.575Z,20.66
2022-10-01T09:52:01.779Z,20.72
2022-10-01T09:53:00.533Z,20.59
2022-10-01T09:54:33.579Z,20.74
2022-10-01T09:55:40.785Z,20.91
2022-10-01T09:56:45.258Z,20.50
2022-10-01T09:57:50.793Z,20.79
2022-10-01T09:58:56.397Z,20.66
2022-10-01T10:00:10.834Z,20.84
2022-10-01T10:01:22.183Z,20.25
2022-10-01T10:02:34.238Z,21.00
2022-10-01T10:03:32.030Z,20.75
2022-10-01T10:04:28.840Z,19.86
2022-10-01T10:05:40.061Z,20.99
2022-10-01T10:06:39.154Z,20.83
2022-10-01T10:07:39.739Z,20.63
2022-10-01T10:08:40.327Z,20.79
2022-10-01T10:09:38.049Z,20.21
2022-10-01T10:10:40.132Z,20.32
2022-10-01T10:11:37.168Z,20.66
2022-10-01T10:12:34.737Z,20.82
2022-10-01T10:13:39.576Z,20.62
2022-10-01T10:14:41.973Z,20.60
2022-10-01T10:15:57.491Z,20.60
2022-10-01T10:16:55.874Z,20.83
2022-10-01T10:17:55.704Z,20.38
2022-10-01T10:18:57.550Z,20.59
2022-10-01T10:19:54.874Z,20.81
2022-10-01T10:20:54.720Z,20.83
2022-10-01T10:22:00.691Z,20.63
2022-10-01T10:23:09.619Z,20.72
2022-10-01T10:24:31.458Z,20.97
2022-10-01T10:25:28.123Z,20.31
2022-10-01T10:26:36.219Z,20.60
2022-10-01T10:27:33.541Z,20.61
2022-10-01T10:28:44.103Z,20.68
2022-10-01T10:29:41.116Z,20.39
2022-10-01T10:30:37.997Z,20.74
2022-10-01T10:31:45.710Z,20.57
2022-10-01T10:32:44.432Z,20.39
2022-10-01T10:33:57.480Z,20.46
2022-10-01T10:35:04.887Z,20.41
2022-10-01T10:36:06.849Z,20.46
2022-10-01T10:37:07.210Z,20.72
2022-10-01T10:38:04.299Z,20.23
2022-10-01T10:39:03.308Z,20.70
2022-10-01T10:40:00.678Z,20.68
2022-10-01T10:40:57.761Z,19.93
2022-10-01T10:41:56.734Z,20.51
2022-10-01T10:42:56.794Z,20.46
2022-10-01T10:44:04.968Z,20.41
2022-10-01T10:45:03.928Z,20.36
2022-10-01T10:46:02.006Z,20.16
2022-10-01T10:47:01.169Z,20.43
2022-10-01T10:47:58.312Z,19.63
2022-10-01T10:49:21.771Z,20.33
2022-10-01T10:50:39.409Z,19.57
2022-10-01T10:51:54.023Z,20.16
2022-10-01T10:52:50.925Z,20.17
2022-10-01T10:53:49.482Z,20.09
2022-10-01T10:54:54.265Z,20.11
2022-10-01T10:56:03.198Z,20.10
2022-10-01T10:57:23.407Z,19.99
2022-10-01T10:58:20.101Z,19.22
2022-10-01T10:59:18.505Z,20.10
2022-10-01T11:00:25.650Z,20.01
2022-10-01T11:01:29.609Z,19.97
2022-10-01T11:02:31.901Z,20.07
2022-10-01T11:03:32.771Z,20.12
2022-10-01T11:04:40.493Z,19.99
2022-10-01T11:05:43.008Z,19.89
2022-10-01T11:06:39.867Z,19.96
2022-10-01T11:07:36.687Z,19.82
2022-10-01T11:08:35.758Z,19.78
2022-10-01T11:09:54.017Z,19.97
2022-10-01T11:10:53.663Z,20.04
2022-10-01T11:12:22.146Z,20.13
2022-10-01T11:13:40.361Z,20.19
2022-10-01T11:14:50.952Z,20.30
2022-10-01T11:16:03.069Z,20.39
2022-10-01T11:17:21.205Z,20.51
2022-10-01T11:18:28.244Z,20.72
2022-10-01T11:19:30.890Z,20.77
2022-10-01T11:20:50.167Z,20.49
2022-10-01T11:21:56.144Z,20.79
2022-10-01T11:23:07.097Z,20.54
2022-10-01T11:24:29.499Z,20.84
2022-10-01T11:25:45.062Z,20.43
2022-10-01T11:27:03.370Z,20.71
2022-10-01T11:28:25.022Z,20.65
2022-10-01T11:29:54.599Z,20.68
2022-10-01T11:31:33.686Z,20.69
2022-10-01T11:33:10.699Z,20.66
2022-10-01T11:34:31.779Z,20.61
2022-10-01T11:35:55.424Z,20.63
2022-10-01T11:37:35.672Z,20.55
2022-10-01T11:38:50.633Z,20.46
2022-10-01T11:39:55.412Z,20.37
2022-10-01T11:41:09.324Z,19.63
2022-10-01T11:42:13.034Z,20.43
2022-10-01T11:43:22.738Z,20.37
2022-10-01T11:44:19.390Z,20.30
2022-10-01T11:45:32.059Z,19.51
2022-10-01T11:46:58.894Z,20.39
2022-10-01T11:48:14.554Z,20.27
2022-10-01T11:49:40.913Z,20.19
2022-10-01T11:50:46.229Z,19.89
2022-10-01T11:51:51.522Z,20.06
2022-10-01T11:52:54.852Z,20.09
2022-10-01T11:54:01.395Z,18.96
2022-10-01T11:55:42.802Z,20.46
2022-10-01T11:57:13.302Z,19.63
2022-10-01T11:58:31.655Z,20.63
2022-10-01T11:59:38.552Z,20.38
2022-10-01T12:00:39.565Z,20.52
2022-10-01T12:01:45.693Z,20.42
2022-10-01T12:02:58.949Z,20.25
2022-10-01T12:04:34.789Z,20.62
2022-10-01T12:05:34.375Z,20.68
2022-10-01T12:06:44.823Z,20.80
2022-10-01T12:07:53.385Z,20.75
2022-10-01T12:09:14.135Z,20.64
2022-10-01T12:10:44.798Z,20.63
2022-10-01T12:11:54.726Z,20.59
2022-10-01T12:13:12.358Z,20.91
2022-10-01T12:14:22.801Z,20.97
2022-10-01T12:15:31.335Z,20.91
2022-10-01T12:16:31.152Z,21.06
2022-10-01T12:17:43.088Z,21.08
2022-10-01T12:18:56.171Z,21.02
2022-10-01T12:19:59.703Z,21.23
2022-10-01T12:21:03.076Z,21.21
2022-10-01T12:22:19.396Z,21.25
2022-10-01T12:23:26.257Z,21.00
2022-10-01T12:24:31.674Z,20.97
2022-10-01T12:25:55.460Z,21.11
2022-10-01T12:26:52.075Z,21.03
2022-10-01T12:28:17.597Z,21.00
2022-10-01T12:29:50.679Z,20.32
2022-10-01T12:31:01.349Z,21.20
2022-10-01T12:32:23.643Z,21.25
2022-10-01T12:33:23.457Z,21.27
2022-10-01T12:34:49.335Z,21.13
2022-10-01T12:36:03.217Z,20.83
2022-10-01T12:37:04.340Z,21.05
2022-10-01T12:38:15.886Z,21.03
2022-10-01T12:39:45.122Z,20.98
2022-10-01T12:40:44.682Z,21.01
2022-10-01T12:41:57.221Z,21.01
2022-10-01T12:43:05.065Z,20.71
2022-10-01T12:44:16.605Z,20.78
2022-10-01T12:45:37.164Z,20.88
2022-10-01T12:46:56.021Z,20.61
2022-10-01T12:48:19.018Z,20.61
2022-10-01T12:49:52.339Z,20.60
2022-10-01T12:51:33.956Z,20.62
2022-10-01T12:52:58.504Z,20.64
2022-10-01T12:54:24.259Z,20.66
2022-10-01T12:56:06.296Z,20.51
2022-10-01T12:57:19.761Z,20.23
2022-10-01T12:58:44.255Z,19.68
2022-10-01T13:00:08.743Z,20.37
2022-10-01T13:01:27.789Z,20.05
2022-10-01T13:02:34.281Z,20.22
2022-10-01T13:03:37.518Z,20.17
2022-10-01T13:05:22.093Z,20.13
2022-10-01T13:06:40.315Z,19.96
2022-10-01T13:07:52.674Z,19.90
2022-10-01T13:08:58.954Z,19.73
2022-10-01T13:10:01.394Z,20.11
2022-10-01T13:11:10.289Z,20.20
2022-10-01T13:12:44.447Z,20.30
2022-10-01T13:13:42.903Z,20.24
2022-10-01T13:14:44.427Z,20.54
2022-10-01T13:15:49.636Z,20.59
2022-10-01T13:16:55.512Z,20.53
2022-10-01T13:17:54.811Z,20.58
2022-10-01T13:19:14.590Z,20.47
2022-10-01T13:20:33.641Z,20.60
2022-10-01T13:21:54.601Z,20.56
2022-10-01T13:23:03.187Z,19.59
2022-10-01T13:24:14.733Z,19.65
2022-10-01T13:25:49.142Z,20.54
2022-10-01T13:27:06.870Z,20.65
2022-10-01T13:28:27.452Z,20.62
2022-10-01T13:29:41.766Z,20.50
2022-10-01T13:31:00.140Z,20.34
2022-10-01T13:32:03.722Z,20.30
2022-10-01T13:33:01.481Z,20.16